createdAt,value
2023-02-24T00:01:41.082Z,2.00
2023-02-24T00:04:10.004Z,1.25
2023-02-24T00:06:38.794Z,2.10
2023-02-24T00:09:18.669Z,1.63
2023-02-24T00:11:47.846Z,2.72
2023-02-24T00:14:19.311Z,1.58
2023-02-24T00:16:46.830Z,1.95
2023-02-24T00:19:16.347Z,2.13
2023-02-24T00:21:43.616Z,1.48
2023-02-24T00:24:10.435Z,1.50
2023-02-24T00:26:37.466Z,1.88
2023-02-24T00:29:05.751Z,1.60
2023-02-24T00:31:32.834Z,1.88
2023-02-24T00:34:00.712Z,1.50
2023-02-24T00:36:28.813Z,1.67
2023-02-24T00:38:57.625Z,1.67
2023-02-24T00:41:29.398Z,1.65
2023-02-24T00:44:08.057Z,1.85
2023-02-24T00:46:36.907Z,1.65
2023-02-24T00:49:05.569Z,1.85
2023-02-24T00:51:36.202Z,1.83
2023-02-24T00:54:03.419Z,1.52
2023-02-24T00:56:30.823Z,1.65
2023-02-24T00:58:58.965Z,1.60
2023-02-24T01:01:27.879Z,1.67
2023-02-24T01:03:54.779Z,1.80
2023-02-24T01:06:22.997Z,1.52
2023-02-24T01:08:50.765Z,1.50
2023-02-24T01:11:38.016Z,1.58
2023-02-24T01:14:09.954Z,2.17
2023-02-24T01:16:38.086Z,1.77
2023-02-24T01:19:07.526Z,1.90
2023-02-24T01:21:34.924Z,1.80
2023-02-24T01:24:01.724Z,1.90
2023-02-24T01:26:29.012Z,1.63
2023-02-24T01:28:56.719Z,1.58
2023-02-24T01:31:24.268Z,1.70
2023-02-24T01:33:52.169Z,1.60
2023-02-24T01:36:28.073Z,1.60
2023-02-24T01:38:55.131Z,1.55
2023-02-24T01:41:23.097Z,1.70
2023-02-24T01:44:03.589Z,1.83
2023-02-24T01:46:33.106Z,1.55
2023-02-24T01:49:08.312Z,1.70
2023-02-24T01:51:36.680Z,1.70
2023-02-24T01:54:04.371Z,2.17
2023-02-24T01:56:31.133Z,1.48
2023-02-24T01:58:58.601Z,1.65
2023-02-24T02:01:25.708Z,1.85
2023-02-24T02:03:52.533Z,1.50
2023-02-24T02:06:19.858Z,1.65
2023-02-24T02:08:47.454Z,1.60
2023-02-24T02:11:20.702Z,1.50
2023-02-24T02:16:33.232Z,1.63
2023-02-24T02:19:14.965Z,1.58
2023-02-24T02:21:44.579Z,1.10
2023-02-24T02:24:19.911Z,1.83
2023-02-24T02:27:04.381Z,1.33
2023-02-24T02:29:37.261Z,1.48
2023-02-24T02:32:17.213Z,1.00
2023-02-24T02:35:02.178Z,1.48
2023-02-24T02:37:47.362Z,1.50
2023-02-24T02:40:23.190Z,1.50
2023-02-24T02:43:19.482Z,1.50
2023-02-24T02:46:10.866Z,1.60
2023-02-24T02:48:48.758Z,1.48
2023-02-24T02:51:21.405Z,1.50
2023-02-24T02:53:49.520Z,1.20
2023-02-24T02:56:19.216Z,1.67
2023-02-24T02:58:48.791Z,1.65
2023-02-24T03:01:16.581Z,1.88
2023-02-24T03:03:46.562Z,1.88
2023-02-24T03:06:23.363Z,1.45
2023-02-24T03:09:16.121Z,1.40
2023-02-24T03:11:43.862Z,1.33
2023-02-24T03:14:12.261Z,1.33
2023-02-24T03:16:43.508Z,1.60
2023-02-24T03:19:10.710Z,1.63
2023-02-24T03:21:39.888Z,1.77
2023-02-24T03:24:06.942Z,1.48
2023-02-24T03:26:52.040Z,1.63
2023-02-24T03:29:26.007Z,1.50
2023-02-24T03:32:26.921Z,1.50
2023-02-24T03:35:10.982Z,1.73
2023-02-24T03:37:37.749Z,2.28
2023-02-24T03:40:11.395Z,1.73
2023-02-24T03:42:40.050Z,1.50
2023-02-24T03:45:07.393Z,1.35
2023-02-24T03:47:34.307Z,1.92
2023-02-24T03:50:01.246Z,1.50
2023-02-24T03:52:41.776Z,1.95
2023-02-24T03:55:38.611Z,1.23
2023-02-24T03:58:19.016Z,1.52
2023-02-24T04:01:06.834Z,1.33
2023-02-24T04:03:36.521Z,1.27
2023-02-24T04:06:38.955Z,1.30
2023-02-24T04:09:17.634Z,1.55
2023-02-24T04:11:57.101Z,1.58
2023-02-24T04:14:34.761Z,1.40
2023-02-24T04:17:09.068Z,1.30
2023-02-24T04:19:38.529Z,1.30
2023-02-24T04:22:06.849Z,1.05
2023-02-24T04:24:33.796Z,1.52
2023-02-24T04:27:01.803Z,1.15
2023-02-24T04:29:35.406Z,1.40
2023-02-24T04:32:07.512Z,1.33
2023-02-24T04:34:35.136Z,1.23
2023-02-24T04:37:02.429Z,1.40
2023-02-24T04:39:30.048Z,1.20
2023-02-24T04:41:57.771Z,1.33
2023-02-24T04:44:25.263Z,1.50
2023-02-24T04:46:52.013Z,1.20
2023-02-24T04:49:19.321Z,1.67
2023-02-24T04:51:46.490Z,1.40
2023-02-24T04:54:17.651Z,1.13
2023-02-24T04:56:48.547Z,1.73
2023-02-24T04:59:15.456Z,1.52
2023-02-24T05:01:44.208Z,1.52
2023-02-24T05:04:11.889Z,1.20
2023-02-24T05:06:43.908Z,1.20
2023-02-24T05:09:19.752Z,1.50
2023-02-24T05:11:48.956Z,1.23
2023-02-24T05:14:17.647Z,1.35
2023-02-24T05:16:45.254Z,1.55
2023-02-24T05:19:32.127Z,1.10
2023-02-24T05:21:59.030Z,1.10
2023-02-24T05:24:27.191Z,1.10
2023-02-24T05:26:59.705Z,1.02
2023-02-24T05:29:28.035Z,1.23
2023-02-24T05:31:59.341Z,1.25
2023-02-24T05:34:30.732Z,1.17
2023-02-24T05:36:58.328Z,1.15
2023-02-24T05:39:27.093Z,1.73
2023-02-24T05:41:57.006Z,1.17
2023-02-24T05:44:25.974Z,1.10
2023-02-24T05:46:58.255Z,1.15
2023-02-24T05:49:28.930Z,1.27
2023-02-24T05:51:56.858Z,1.60
2023-02-24T05:54:28.800Z,1.30
2023-02-24T05:56:58.011Z,1.67
2023-02-24T05:59:24.745Z,1.20
2023-02-24T06:01:54.204Z,1.13
2023-02-24T06:04:21.117Z,1.48
2023-02-24T06:06:52.537Z,1.60
2023-02-24T06:09:19.974Z,1.70
2023-02-24T06:11:47.713Z,1.50
2023-02-24T06:14:14.495Z,1.63
2023-02-24T06:16:41.958Z,1.60
2023-02-24T06:19:10.048Z,0.85
2023-02-24T06:21:37.701Z,1.35
2023-02-24T06:24:05.460Z,1.40
2023-02-24T06:26:33.753Z,1.20
2023-02-24T06:29:00.593Z,1.15
2023-02-24T06:31:27.526Z,1.08
2023-02-24T06:33:54.505Z,1.23
2023-02-24T06:36:21.981Z,1.00
2023-02-24T06:38:49.878Z,1.73
2023-02-24T06:41:16.692Z,1.30
2023-02-24T06:43:44.896Z,1.20
2023-02-24T06:46:13.409Z,1.25
2023-02-24T06:48:41.701Z,1.38
2023-02-24T06:51:15.770Z,1.15
2023-02-24T06:53:45.625Z,1.05
2023-02-24T06:56:18.116Z,0.80
2023-02-24T06:58:46.392Z,0.88
2023-02-24T07:01:17.686Z,0.82
2023-02-24T07:04:03.104Z,0.90
2023-02-24T07:06:31.649Z,1.00
2023-02-24T07:08:58.653Z,0.80
2023-02-24T07:11:25.984Z,0.85
2023-02-24T07:13:54.524Z,0.90
2023-02-24T07:16:25.171Z,1.02
2023-02-24T07:18:56.681Z,0.85
2023-02-24T07:21:24.723Z,1.08
2023-02-24T07:23:58.817Z,1.23
2023-02-24T07:26:26.599Z,0.95
2023-02-24T07:28:55.040Z,1.20
2023-02-24T07:31:24.241Z,1.00
2023-02-24T07:33:56.745Z,0.90
2023-02-24T07:36:23.849Z,1.00
2023-02-24T07:38:54.283Z,0.80
2023-02-24T07:41:22.857Z,0.90
2023-02-24T07:43:53.394Z,0.93
2023-02-24T07:46:24.649Z,0.98
2023-02-24T07:48:55.232Z,1.25
2023-02-24T07:51:23.670Z,1.63
2023-02-24T07:53:56.772Z,1.73
2023-02-24T07:56:32.901Z,1.92
2023-02-24T07:59:02.761Z,1.63
2023-02-24T08:01:31.095Z,1.58
2023-02-24T08:04:08.170Z,1.33
2023-02-24T08:06:39.502Z,1.55
2023-02-24T08:09:16.859Z,1.20
2023-02-24T08:11:46.179Z,1.30
2023-02-24T08:14:15.983Z,1.42
2023-02-24T08:16:59.350Z,1.33
2023-02-24T08:19:39.392Z,1.38
2023-02-24T08:22:19.597Z,1.38
2023-02-24T08:25:05.890Z,1.83
2023-02-24T08:27:38.782Z,1.67
2023-02-24T08:30:07.596Z,1.92
2023-02-24T08:32:39.033Z,1.77
2023-02-24T08:35:14.910Z,1.33
2023-02-24T08:37:47.156Z,1.05
2023-02-24T08:40:50.067Z,1.25
2023-02-24T08:43:33.246Z,1.52
2023-02-24T08:46:18.190Z,1.30
2023-02-24T08:48:50.041Z,1.60
2023-02-24T08:51:22.609Z,1.25
2023-02-24T08:53:54.331Z,1.50
2023-02-24T08:56:27.222Z,1.83
2023-02-24T08:58:58.399Z,1.83
2023-02-24T09:01:34.631Z,2.35
2023-02-24T09:04:08.455Z,2.08
2023-02-24T09:07:10.726Z,1.55
2023-02-24T09:09:42.212Z,1.40
2023-02-24T09:12:10.430Z,1.20
2023-02-24T09:14:37.549Z,1.70
2023-02-24T09:17:06.567Z,1.75
2023-02-24T09:19:46.517Z,1.85
2023-02-24T09:22:32.458Z,2.00
2023-02-24T09:25:27.315Z,1.70
2023-02-24T09:27:56.085Z,1.88
2023-02-24T09:30:37.729Z,1.67
2023-02-24T09:33:17.874Z,1.65
2023-02-24T09:36:13.029Z,1.55
2023-02-24T09:39:02.181Z,1.30
2023-02-24T09:41:53.432Z,1.50
2023-02-24T09:44:24.031Z,2.13
2023-02-24T09:47:09.373Z,2.15
2023-02-24T09:49:46.488Z,2.20
2023-02-24T09:52:18.370Z,2.25
2023-02-24T09:55:08.261Z,1.98
2023-02-24T09:57:55.166Z,2.72
2023-02-24T10:00:25.096Z,1.83
2023-02-24T10:03:19.403Z,2.45
2023-02-24T10:05:59.048Z,2.42
2023-02-24T10:08:33.181Z,2.00
2023-02-24T10:11:08.624Z,1.70
2023-02-24T10:13:37.504Z,2.05
2023-02-24T10:16:08.389Z,2.42
2023-02-24T10:18:45.635Z,2.20
2023-02-24T10:21:30.875Z,2.08
2023-02-24T10:24:37.501Z,1.92
2023-02-24T10:27:24.133Z,1.90
2023-02-24T10:30:01.231Z,2.10
2023-02-24T10:32:47.215Z,1.85
2023-02-24T10:35:19.953Z,1.67
2023-02-24T10:37:46.982Z,1.50
2023-02-24T10:40:24.841Z,1.90
2023-02-24T10:42:55.051Z,1.40
2023-02-24T10:45:26.307Z,1.48
2023-02-24T10:47:57.562Z,1.25
2023-02-24T10:50:31.060Z,1.58
2023-02-24T10:53:08.611Z,1.70
2023-02-24T10:55:45.522Z,2.30
2023-02-24T10:58:44.676Z,2.45
2023-02-24T11:01:21.347Z,2.10
2023-02-24T11:04:01.780Z,2.83
2023-02-24T11:06:41.419Z,2.63
2023-02-24T11:09:20.248Z,2.17
2023-02-24T11:12:05.836Z,2.30
2023-02-24T11:14:53.503Z,1.83
2023-02-24T11:17:27.239Z,1.48
2023-02-24T11:20:01.688Z,2.33
2023-02-24T11:22:32.796Z,1.92
2023-02-24T11:25:07.661Z,2.08
2023-02-24T11:27:34.360Z,2.40
2023-02-24T11:30:19.265Z,2.42
2023-02-24T11:33:10.776Z,2.60
2023-02-24T11:35:58.004Z,2.15
2023-02-24T11:38:43.787Z,2.33
2023-02-24T11:41:41.066Z,2.42
2023-02-24T11:44:17.826Z,2.20
2023-02-24T11:46:50.614Z,2.80
2023-02-24T11:49:28.283Z,2.17
2023-02-24T11:51:55.114Z,2.60
2023-02-24T11:54:23.216Z,2.92
2023-02-24T11:56:54.935Z,2.75
2023-02-24T11:59:39.976Z,2.70
2023-02-24T12:02:38.794Z,2.78
2023-02-24T12:05:14.551Z,3.20
2023-02-24T12:08:02.118Z,2.45
2023-02-24T12:10:36.423Z,2.90
2023-02-24T12:13:15.055Z,3.50
2023-02-24T12:16:11.109Z,2.38
2023-02-24T12:18:46.826Z,2.22
2023-02-24T12:21:15.641Z,2.60
2023-02-24T12:23:46.409Z,2.35
2023-02-24T12:26:21.770Z,2.80
2023-02-24T12:29:07.251Z,2.83
2023-02-24T12:31:37.740Z,3.20
2023-02-24T12:34:09.940Z,3.45
2023-02-24T12:37:07.872Z,3.22
2023-02-24T12:39:45.641Z,2.60
2023-02-24T12:42:34.860Z,2.75
2023-02-24T12:45:11.359Z,2.70
2023-02-24T12:47:59.301Z,3.03
2023-02-24T12:51:01.462Z,2.85
2023-02-24T12:53:41.607Z,2.90
2023-02-24T12:56:22.346Z,3.60
2023-02-24T12:58:50.925Z,3.20
2023-02-24T13:01:25.863Z,3.30
2023-02-24T13:04:13.670Z,3.17
2023-02-24T13:06:58.258Z,2.97
2023-02-24T13:09:32.008Z,2.83
2023-02-24T13:12:27.306Z,3.00
2023-02-24T13:14:54.070Z,3.38
2023-02-24T13:17:27.034Z,2.95
2023-02-24T13:19:55.342Z,3.70
2023-02-24T13:22:26.859Z,2.90
2023-02-24T13:25:08.928Z,3.25
2023-02-24T13:27:37.165Z,2.95
2023-02-24T13:30:17.756Z,2.90
2023-02-24T13:32:47.990Z,3.30
2023-02-24T13:35:18.005Z,2.75
2023-02-24T13:37:46.140Z,2.95
2023-02-24T13:40:33.297Z,3.28
2023-02-24T13:43:01.846Z,3.10
2023-02-24T13:45:35.669Z,3.83
2023-02-24T13:48:18.373Z,3.03
2023-02-24T13:51:17.253Z,2.78
2023-02-24T13:54:13.669Z,2.33
2023-02-24T13:57:22.959Z,2.65
2023-02-24T14:00:29.834Z,2.33
2023-02-24T14:02:56.534Z,2.38
2023-02-24T14:05:42.077Z,1.58
2023-02-24T14:08:09.098Z,1.77
2023-02-24T14:10:36.970Z,2.30
2023-02-24T14:13:06.646Z,2.13
2023-02-24T14:15:33.737Z,1.70
2023-02-24T14:18:04.912Z,1.80
2023-02-24T14:20:35.728Z,2.03
2023-02-24T14:23:14.634Z,2.00
2023-02-24T14:25:41.496Z,2.92
2023-02-24T14:28:18.729Z,2.33
2023-02-24T14:30:45.561Z,1.70
2023-02-24T14:33:26.109Z,2.13
2023-02-24T14:35:52.814Z,1.90
2023-02-24T14:38:39.467Z,1.80
2023-02-24T14:41:29.932Z,2.25
2023-02-24T14:43:56.899Z,2.13
2023-02-24T14:46:24.315Z,2.00
2023-02-24T14:48:56.091Z,1.75
2023-02-24T14:51:36.676Z,2.92
2023-02-24T14:54:05.772Z,1.85
2023-02-24T14:56:33.444Z,1.70
2023-02-24T14:59:07.766Z,1.75
2023-02-24T15:01:35.519Z,1.65
2023-02-24T15:04:14.855Z,1.60
2023-02-24T15:06:42.584Z,2.22
2023-02-24T15:09:16.442Z,2.28
2023-02-24T15:11:43.126Z,2.40
2023-02-24T15:14:23.239Z,2.78
2023-02-24T15:16:52.142Z,2.30
2023-02-24T15:19:37.899Z,2.45
2023-02-24T15:22:17.722Z,2.22
2023-02-24T15:24:44.462Z,2.53
2023-02-24T15:27:14.168Z,2.20
2023-02-24T15:29:42.736Z,2.10
2023-02-24T15:32:19.135Z,2.17
2023-02-24T15:34:46.467Z,2.28
2023-02-24T15:37:37.439Z,2.17
2023-02-24T15:40:20.853Z,2.20
2023-02-24T15:45:34.776Z,2.30
2023-02-24T15:48:02.392Z,1.80
2023-02-24T15:50:29.933Z,2.25
2023-02-24T15:52:58.329Z,2.15
2023-02-24T15:55:25.002Z,2.30
2023-02-24T15:58:03.963Z,1.52
2023-02-24T16:00:31.376Z,1.60
2023-02-24T16:02:58.524Z,1.80
2023-02-24T16:05:25.578Z,1.70
2023-02-24T16:07:53.328Z,1.60
2023-02-24T16:10:27.699Z,1.75
2023-02-24T16:13:00.199Z,2.50
2023-02-24T16:15:39.407Z,2.03
2023-02-24T16:18:12.272Z,1.85
2023-02-24T16:20:39.732Z,2.13
2023-02-24T16:23:06.543Z,2.15
2023-02-24T16:25:42.719Z,2.83
2023-02-24T16:28:14.292Z,2.38
2023-02-24T16:30:41.716Z,1.83
2023-02-24T16:33:12.865Z,1.75
2023-02-24T16:35:41.668Z,2.22
2023-02-24T16:38:15.184Z,2.08
2023-02-24T16:40:43.587Z,1.70
2023-02-24T16:43:10.581Z,1.90
2023-02-24T16:45:40.878Z,1.88
2023-02-24T16:48:22.018Z,1.45
2023-02-24T16:50:48.762Z,2.47
2023-02-24T16:53:17.135Z,1.67
2023-02-24T16:55:44.031Z,2.15
2023-02-24T16:58:11.358Z,2.13
2023-02-24T17:00:38.864Z,2.83
2023-02-24T17:03:13.759Z,1.20
2023-02-24T17:05:40.601Z,1.80
2023-02-24T17:08:07.299Z,1.92
2023-02-24T17:10:37.986Z,2.58
2023-02-24T17:13:05.869Z,2.53
2023-02-24T17:15:32.669Z,3.97
2023-02-24T17:17:59.341Z,4.60
2023-02-24T17:20:26.039Z,5.30
2023-02-24T17:22:52.714Z,4.53
2023-02-24T17:25:25.537Z,3.90
2023-02-24T17:27:53.057Z,5.18
2023-02-24T17:30:22.607Z,3.53
2023-02-24T17:32:49.425Z,3.55
2023-02-24T17:35:16.280Z,2.38
2023-02-24T17:37:43.897Z,3.50
2023-02-24T17:40:11.536Z,3.22
2023-02-24T17:42:38.224Z,2.35
2023-02-24T17:45:05.809Z,2.33
2023-02-24T17:47:32.940Z,2.47
2023-02-24T17:50:00.355Z,1.98
2023-02-24T17:52:27.538Z,1.95
2023-02-24T17:54:54.225Z,1.80
2023-02-24T17:57:21.005Z,2.30
2023-02-24T17:59:47.783Z,1.80
2023-02-24T18:02:15.632Z,2.33
2023-02-24T18:04:42.725Z,1.50
2023-02-24T18:07:09.989Z,1.95
2023-02-24T18:09:36.716Z,1.85
2023-02-24T18:12:03.780Z,2.05
2023-02-24T18:14:30.570Z,1.50
2023-02-24T18:16:57.413Z,1.48
2023-02-24T18:19:24.208Z,1.70
2023-02-24T18:21:51.062Z,1.70
2023-02-24T18:24:17.841Z,1.70
2023-02-24T18:26:44.596Z,1.33
2023-02-24T18:29:11.413Z,2.13
2023-02-24T18:31:38.283Z,1.67
2023-02-24T18:34:05.199Z,1.90
2023-02-24T18:36:32.357Z,1.50
2023-02-24T18:38:59.163Z,1.70
2023-02-24T18:41:26.090Z,1.40
2023-02-24T18:43:55.719Z,1.92
2023-02-24T18:46:23.365Z,1.83
2023-02-24T18:48:50.364Z,1.23
2023-02-24T18:51:21.669Z,1.35
2023-02-24T18:53:51.425Z,1.73
2023-02-24T18:56:21.758Z,1.33
2023-02-24T18:58:49.616Z,1.45
2023-02-24T19:01:21.053Z,1.40
2023-02-24T19:03:48.621Z,1.58
2023-02-24T19:06:15.540Z,1.02
2023-02-24T19:08:42.456Z,1.63
2023-02-24T19:11:10.794Z,1.83
2023-02-24T19:13:37.551Z,1.20
2023-02-24T19:16:04.841Z,1.80
2023-02-24T19:18:31.776Z,1.15
2023-02-24T19:20:58.542Z,1.35
2023-02-24T19:23:25.432Z,1.20
2023-02-24T19:25:52.202Z,1.00
2023-02-24T19:28:20.069Z,1.20
2023-02-24T19:30:47.154Z,1.55
2023-02-24T19:33:13.975Z,1.20
2023-02-24T19:35:42.112Z,1.58
2023-02-24T19:38:11.552Z,1.20
2023-02-24T19:40:38.343Z,1.15
2023-02-24T19:43:05.001Z,1.08
2023-02-24T19:45:31.706Z,1.15
2023-02-24T19:47:58.452Z,1.90
2023-02-24T19:50:26.606Z,1.23
2023-02-24T19:52:55.571Z,1.98
2023-02-24T19:55:22.624Z,1.73
2023-02-24T19:57:53.609Z,1.60
2023-02-24T20:00:20.975Z,1.50
2023-02-24T20:02:47.875Z,1.80
2023-02-24T20:05:15.567Z,1.52
2023-02-24T20:07:43.376Z,1.33
2023-02-24T20:10:11.324Z,1.23
2023-02-24T20:12:38.177Z,1.15
2023-02-24T20:15:05.732Z,1.67
2023-02-24T20:17:33.925Z,1.60
2023-02-24T20:20:01.230Z,1.77
2023-02-24T20:22:28.226Z,2.58
2023-02-24T20:24:55.222Z,1.70
2023-02-24T20:27:23.107Z,1.75
2023-02-24T20:29:52.367Z,1.50
2023-02-24T20:32:20.507Z,1.33
2023-02-24T20:34:47.832Z,1.48
2023-02-24T20:37:14.666Z,1.30
2023-02-24T20:39:41.563Z,1.20
2023-02-24T20:42:08.355Z,1.45
2023-02-24T20:44:35.198Z,1.42
2023-02-24T20:47:01.923Z,1.20
2023-02-24T20:49:28.810Z,1.27
2023-02-24T20:51:56.196Z,1.70
2023-02-24T20:54:23.955Z,1.13
2023-02-24T20:56:50.734Z,1.20
2023-02-24T20:59:24.793Z,1.70
2023-02-24T21:01:51.924Z,1.02
2023-02-24T21:04:20.149Z,1.30
2023-02-24T21:06:48.149Z,1.77
2023-02-24T21:09:15.945Z,1.48
2023-02-24T21:11:43.326Z,1.20
2023-02-24T21:14:15.339Z,1.20
2023-02-24T21:16:44.437Z,1.02
2023-02-24T21:19:11.283Z,1.35
2023-02-24T21:21:38.169Z,2.75
2023-02-24T21:24:05.705Z,1.85
2023-02-24T21:26:32.571Z,2.03
2023-02-24T21:28:59.695Z,1.48
2023-02-24T21:31:26.877Z,1.88
2023-02-24T21:33:53.970Z,2.13
2023-02-24T21:36:23.351Z,1.35
2023-02-24T21:38:50.544Z,1.58
2023-02-24T21:41:19.466Z,1.10
2023-02-24T21:43:47.068Z,2.10
2023-02-24T21:46:15.437Z,1.67
2023-02-24T21:48:43.077Z,1.33
2023-02-24T21:51:11.123Z,1.15
2023-02-24T21:53:43.727Z,1.60
2023-02-24T21:56:20.534Z,1.70
2023-02-24T21:58:57.473Z,1.40
2023-02-24T22:01:30.556Z,1.35
2023-02-24T22:03:59.120Z,1.20
2023-02-24T22:06:26.294Z,1.55
2023-02-24T22:08:54.786Z,1.60
2023-02-24T22:11:21.980Z,1.65
2023-02-24T22:13:48.984Z,1.65
2023-02-24T22:16:23.547Z,1.83
2023-02-24T22:18:51.746Z,1.55
2023-02-24T22:21:20.364Z,1.70
2023-02-24T22:23:48.794Z,1.20
2023-02-24T22:26:16.844Z,1.40
2023-02-24T22:28:44.322Z,1.70
2023-02-24T22:31:11.882Z,1.65
2023-02-24T22:33:43.032Z,1.95
2023-02-24T22:36:14.952Z,2.42
2023-02-24T22:38:42.031Z,1.90
2023-02-24T22:41:16.636Z,1.48
2023-02-24T22:43:43.524Z,1.33
2023-02-24T22:46:14.181Z,1.40
2023-02-24T22:48:41.049Z,1.45
2023-02-24T22:51:08.942Z,1.52
2023-02-24T22:53:37.192Z,1.35
2023-02-24T22:56:04.740Z,1.55
2023-02-24T22:58:32.446Z,2.63
2023-02-24T23:00:59.815Z,1.90
2023-02-24T23:03:30.649Z,1.58
2023-02-24T23:06:08.370Z,1.65
2023-02-24T23:08:37.019Z,1.90
2023-02-24T23:11:15.621Z,1.73
2023-02-24T23:13:44.760Z,1.27
2023-02-24T23:16:16.983Z,1.55
2023-02-24T23:18:50.819Z,1.75
2023-02-24T23:21:38.833Z,1.73
2023-02-24T23:24:06.298Z,1.55
2023-02-24T23:26:33.597Z,1.50
2023-02-24T23:29:00.380Z,1.40
2023-02-24T23:31:27.498Z,1.80
2023-02-24T23:33:55.097Z,1.60
2023-02-24T23:36:22.762Z,1.67
2023-02-24T23:38:49.771Z,1.27
2023-02-24T23:41:16.568Z,1.50
2023-02-24T23:43:43.396Z,1.48
2023-02-24T23:46:11.580Z,1.30
2023-02-24T23:48:38.565Z,1.00
2023-02-24T23:51:07.124Z,1.30
2023-02-24T23:53:41.323Z,1.00
2023-02-24T23:56:09.517Z,1.60
2023-02-24T23:58:37.309Z,1.77
